sensor_id;sensor_type;location;lat;lon;timestamp;temperature;humidity
50907;DHT22;36882;27.680;85.304;2022-12-24T00:02:25;9.80;93.20
50907;DHT22;36882;27.680;85.304;2022-12-24T00:04:55;9.70;93.30
50907;DHT22;36882;27.680;85.304;2022-12-24T00:07:28;9.70;93.40
50907;DHT22;36882;27.680;85.304;2022-12-24T00:09:58;9.70;93.40
50907;DHT22;36882;27.680;85.304;2022-12-24T00:12:28;9.50;93.60
50907;DHT22;36882;27.680;85.304;2022-12-24T00:14:58;9.60;93.80
50907;DHT22;36882;27.680;85.304;2022-12-24T00:17:28;9.60;93.80
50907;DHT22;36882;27.680;85.304;2022-12-24T00:19:58;9.60;93.70
50907;DHT22;36882;27.680;85.304;2022-12-24T00:22:29;9.60;93.50
50907;DHT22;36882;27.680;85.304;2022-12-24T00:24:59;9.60;93.60
50907;DHT22;36882;27.680;85.304;2022-12-24T00:27:29;9.60;93.70
50907;DHT22;36882;27.680;85.304;2022-12-24T00:29:59;9.70;93.60
50907;DHT22;36882;27.680;85.304;2022-12-24T00:32:29;9.60;93.50
50907;DHT22;36882;27.680;85.304;2022-12-24T00:34:59;9.70;93.50
50907;DHT22;36882;27.680;85.304;2022-12-24T00:37:29;9.60;93.60
50907;DHT22;36882;27.680;85.304;2022-12-24T00:39:59;9.60;93.70
50907;DHT22;36882;27.680;85.304;2022-12-24T00:42:30;9.60;93.70
50907;DHT22;36882;27.680;85.304;2022-12-24T00:45:00;9.60;93.70
50907;DHT22;36882;27.680;85.304;2022-12-24T00:47:30;9.50;93.80
50907;DHT22;36882;27.680;85.304;2022-12-24T00:50:00;9.60;93.90
50907;DHT22;36882;27.680;85.304;2022-12-24T00:52:30;9.60;93.90
50907;DHT22;36882;27.680;85.304;2022-12-24T00:55:00;9.60;93.70
50907;DHT22;36882;27.680;85.304;2022-12-24T00:57:30;9.60;93.70
50907;DHT22;36882;27.680;85.304;2022-12-24T01:00:00;9.60;93.60
50907;DHT22;36882;27.680;85.304;2022-12-24T01:02:30;9.60;93.70
50907;DHT22;36882;27.680;85.304;2022-12-24T01:05:00;9.50;93.70
50907;DHT22;36882;27.680;85.304;2022-12-24T01:07:49;9.60;93.80
50907;DHT22;36882;27.680;85.304;2022-12-24T01:10:19;9.60;93.60
50907;DHT22;36882;27.680;85.304;2022-12-24T01:12:49;9.60;93.60
50907;DHT22;36882;27.680;85.304;2022-12-24T01:15:19;9.70;93.60
50907;DHT22;36882;27.680;85.304;2022-12-24T01:17:49;9.70;93.30
50907;DHT22;36882;27.680;85.304;2022-12-24T01:20:19;9.60;93.40
50907;DHT22;36882;27.680;85.304;2022-12-24T01:22:49;9.60;93.60
50907;DHT22;36882;27.680;85.304;2022-12-24T01:25:19;9.50;93.70
50907;DHT22;36882;27.680;85.304;2022-12-24T01:27:49;9.50;93.80
50907;DHT22;36882;27.680;85.304;2022-12-24T01:30:20;9.50;93.90
50907;DHT22;36882;27.680;85.304;2022-12-24T01:32:50;9.60;93.90
50907;DHT22;36882;27.680;85.304;2022-12-24T01:35:20;9.60;93.90
50907;DHT22;36882;27.680;85.304;2022-12-24T01:37:50;9.70;94.00
50907;DHT22;36882;27.680;85.304;2022-12-24T01:40:20;9.70;93.60
50907;DHT22;36882;27.680;85.304;2022-12-24T01:43:17;9.70;93.50
50907;DHT22;36882;27.680;85.304;2022-12-24T01:46:00;9.70;93.50
50907;DHT22;36882;27.680;85.304;2022-12-24T01:48:51;9.80;93.40
50907;DHT22;36882;27.680;85.304;2022-12-24T01:51:37;9.90;93.20
50907;DHT22;36882;27.680;85.304;2022-12-24T01:54:16;9.80;93.50
50907;DHT22;36882;27.680;85.304;2022-12-24T01:56:53;9.90;93.50
50907;DHT22;36882;27.680;85.304;2022-12-24T01:59:24;10.00;93.40
50907;DHT22;36882;27.680;85.304;2022-12-24T02:01:54;10.00;93.40
50907;DHT22;36882;27.680;85.304;2022-12-24T02:04:40;10.10;93.40
50907;DHT22;36882;27.680;85.304;2022-12-24T02:07:11;10.10;93.50
50907;DHT22;36882;27.680;85.304;2022-12-24T02:09:42;10.10;93.30
50907;DHT22;36882;27.680;85.304;2022-12-24T02:12:12;10.20;93.20
50907;DHT22;36882;27.680;85.304;2022-12-24T02:14:42;10.20;93.40
50907;DHT22;36882;27.680;85.304;2022-12-24T02:17:25;10.20;93.50
50907;DHT22;36882;27.680;85.304;2022-12-24T02:26:07;10.50;93.40
50907;DHT22;36882;27.680;85.304;2022-12-24T02:29:10;10.50;93.30
50907;DHT22;36882;27.680;85.304;2022-12-24T02:31:50;10.60;93.10
50907;DHT22;36882;27.680;85.304;2022-12-24T02:34:37;10.70;92.90
50907;DHT22;36882;27.680;85.304;2022-12-24T02:37:15;10.80;92.80
50907;DHT22;36882;27.680;85.304;2022-12-24T02:39:53;10.80;92.70
50907;DHT22;36882;27.680;85.304;2022-12-24T02:42:36;10.90;92.70
50907;DHT22;36882;27.680;85.304;2022-12-24T02:45:12;11.00;92.60
50907;DHT22;36882;27.680;85.304;2022-12-24T02:47:43;11.10;92.60
50907;DHT22;36882;27.680;85.304;2022-12-24T02:50:15;11.10;92.30
50907;DHT22;36882;27.680;85.304;2022-12-24T02:52:47;11.30;92.20
50907;DHT22;36882;27.680;85.304;2022-12-24T02:55:38;11.40;92.20
50907;DHT22;36882;27.680;85.304;2022-12-24T03:02:29;11.60;91.70
50907;DHT22;36882;27.680;85.304;2022-12-24T03:04:41;11.70;91.90
50907;DHT22;36882;27.680;85.304;2022-12-24T03:07:36;11.80;91.80
50907;DHT22;36882;27.680;85.304;2022-12-24T03:10:37;11.90;91.50
50907;DHT22;36882;27.680;85.304;2022-12-24T03:13:14;12.00;91.40
50907;DHT22;36882;27.680;85.304;2022-12-24T03:15:46;12.10;91.40
50907;DHT22;36882;27.680;85.304;2022-12-24T03:18:22;12.10;91.30
50907;DHT22;36882;27.680;85.304;2022-12-24T03:21:04;12.20;91.20
50907;DHT22;36882;27.680;85.304;2022-12-24T03:23:36;12.30;91.00
50907;DHT22;36882;27.680;85.304;2022-12-24T03:26:06;12.40;91.20
50907;DHT22;36882;27.680;85.304;2022-12-24T03:28:38;12.40;91.20
50907;DHT22;36882;27.680;85.304;2022-12-24T03:31:13;12.50;91.00
50907;DHT22;36882;27.680;85.304;2022-12-24T03:33:42;12.60;90.70
50907;DHT22;36882;27.680;85.304;2022-12-24T03:36:12;12.70;90.40
50907;DHT22;36882;27.680;85.304;2022-12-24T03:38:42;12.70;90.40
50907;DHT22;36882;27.680;85.304;2022-12-24T03:41:12;12.80;90.30
50907;DHT22;36882;27.680;85.304;2022-12-24T03:43:42;12.80;90.00
50907;DHT22;36882;27.680;85.304;2022-12-24T03:46:12;12.70;90.20
50907;DHT22;36882;27.680;85.304;2022-12-24T03:48:42;12.80;90.30
50907;DHT22;36882;27.680;85.304;2022-12-24T03:51:22;12.80;90.20
50907;DHT22;36882;27.680;85.304;2022-12-24T03:53:56;12.90;90.00
50907;DHT22;36882;27.680;85.304;2022-12-24T03:56:27;12.90;90.20
50907;DHT22;36882;27.680;85.304;2022-12-24T03:58:57;13.00;90.00
50907;DHT22;36882;27.680;85.304;2022-12-24T04:01:27;13.10;90.20
50907;DHT22;36882;27.680;85.304;2022-12-24T04:03:57;13.20;90.30
50907;DHT22;36882;27.680;85.304;2022-12-24T04:06:27;13.30;90.20
50907;DHT22;36882;27.680;85.304;2022-12-24T04:08:57;13.50;89.60
50907;DHT22;36882;27.680;85.304;2022-12-24T04:11:30;13.50;89.50
50907;DHT22;36882;27.680;85.304;2022-12-24T04:14:00;13.60;89.80
50907;DHT22;36882;27.680;85.304;2022-12-24T04:16:30;13.70;89.20
50907;DHT22;36882;27.680;85.304;2022-12-24T04:19:00;13.70;88.80
50907;DHT22;36882;27.680;85.304;2022-12-24T04:21:30;13.80;88.70
50907;DHT22;36882;27.680;85.304;2022-12-24T04:24:00;14.00;88.80
50907;DHT22;36882;27.680;85.304;2022-12-24T04:26:30;14.10;88.90
50907;DHT22;36882;27.680;85.304;2022-12-24T04:29:01;14.10;88.00
50907;DHT22;36882;27.680;85.304;2022-12-24T04:31:31;14.20;88.30
50907;DHT22;36882;27.680;85.304;2022-12-24T04:34:01;14.30;88.10
50907;DHT22;36882;27.680;85.304;2022-12-24T04:36:31;14.30;87.80
50907;DHT22;36882;27.680;85.304;2022-12-24T04:39:01;14.40;88.00
50907;DHT22;36882;27.680;85.304;2022-12-24T04:41:31;14.40;87.60
50907;DHT22;36882;27.680;85.304;2022-12-24T04:44:01;14.50;86.60
50907;DHT22;36882;27.680;85.304;2022-12-24T04:46:31;14.60;86.60
50907;DHT22;36882;27.680;85.304;2022-12-24T04:49:02;14.60;87.20
50907;DHT22;36882;27.680;85.304;2022-12-24T04:51:32;14.70;87.10
50907;DHT22;36882;27.680;85.304;2022-12-24T04:54:02;14.80;86.80
50907;DHT22;36882;27.680;85.304;2022-12-24T04:56:32;14.80;87.10
50907;DHT22;36882;27.680;85.304;2022-12-24T04:59:02;14.90;86.30
50907;DHT22;36882;27.680;85.304;2022-12-24T05:01:32;15.10;84.90
50907;DHT22;36882;27.680;85.304;2022-12-24T05:04:02;15.10;84.90
50907;DHT22;36882;27.680;85.304;2022-12-24T05:06:35;15.10;85.10
50907;DHT22;36882;27.680;85.304;2022-12-24T05:09:04;15.30;84.70
50907;DHT22;36882;27.680;85.304;2022-12-24T05:11:34;15.20;85.10
50907;DHT22;36882;27.680;85.304;2022-12-24T05:14:04;15.20;85.10
50907;DHT22;36882;27.680;85.304;2022-12-24T05:16:34;15.20;84.70
50907;DHT22;36882;27.680;85.304;2022-12-24T05:19:06;15.30;84.90
50907;DHT22;36882;27.680;85.304;2022-12-24T05:21:36;15.40;84.70
50907;DHT22;36882;27.680;85.304;2022-12-24T05:24:06;15.40;83.70
50907;DHT22;36882;27.680;85.304;2022-12-24T05:26:54;15.40;83.90
50907;DHT22;36882;27.680;85.304;2022-12-24T05:29:25;15.30;84.60
50907;DHT22;36882;27.680;85.304;2022-12-24T05:31:56;15.30;84.70
50907;DHT22;36882;27.680;85.304;2022-12-24T05:34:26;15.30;84.60
50907;DHT22;36882;27.680;85.304;2022-12-24T05:36:56;15.40;84.60
50907;DHT22;36882;27.680;85.304;2022-12-24T05:39:26;15.50;84.70
50907;DHT22;36882;27.680;85.304;2022-12-24T05:41:56;15.60;84.30
50907;DHT22;36882;27.680;85.304;2022-12-24T05:44:26;15.80;83.50
50907;DHT22;36882;27.680;85.304;2022-12-24T05:46:56;16.00;82.80
50907;DHT22;36882;27.680;85.304;2022-12-24T05:49:26;16.00;82.80
50907;DHT22;36882;27.680;85.304;2022-12-24T05:51:57;16.00;81.90
50907;DHT22;36882;27.680;85.304;2022-12-24T05:54:27;16.00;81.60
50907;DHT22;36882;27.680;85.304;2022-12-24T05:56:57;16.00;81.60
50907;DHT22;36882;27.680;85.304;2022-12-24T05:59:28;16.20;80.70
50907;DHT22;36882;27.680;85.304;2022-12-24T06:01:58;16.10;81.10
50907;DHT22;36882;27.680;85.304;2022-12-24T06:04:28;16.10;80.80
50907;DHT22;36882;27.680;85.304;2022-12-24T06:06:58;16.10;80.70
50907;DHT22;36882;27.680;85.304;2022-12-24T06:09:28;16.10;79.40
50907;DHT22;36882;27.680;85.304;2022-12-24T06:11:58;16.10;80.20
50907;DHT22;36882;27.680;85.304;2022-12-24T06:14:28;16.10;80.40
50907;DHT22;36882;27.680;85.304;2022-12-24T06:16:58;16.00;81.60
50907;DHT22;36882;27.680;85.304;2022-12-24T06:19:28;16.10;81.80
50907;DHT22;36882;27.680;85.304;2022-12-24T06:22:01;16.20;81.70
50907;DHT22;36882;27.680;85.304;2022-12-24T06:24:32;16.40;79.20
50907;DHT22;36882;27.680;85.304;2022-12-24T06:27:02;16.50;79.00
50907;DHT22;36882;27.680;85.304;2022-12-24T06:29:32;16.50;79.60
50907;DHT22;36882;27.680;85.304;2022-12-24T06:32:02;16.60;79.00
50907;DHT22;36882;27.680;85.304;2022-12-24T06:34:32;16.60;77.50
50907;DHT22;36882;27.680;85.304;2022-12-24T06:37:02;16.70;76.80
50907;DHT22;36882;27.680;85.304;2022-12-24T06:39:32;16.70;77.30
50907;DHT22;36882;27.680;85.304;2022-12-24T06:42:02;16.80;76.30
50907;DHT22;36882;27.680;85.304;2022-12-24T06:44:32;16.90;75.90
50907;DHT22;36882;27.680;85.304;2022-12-24T06:47:02;17.00;75.50
50907;DHT22;36882;27.680;85.304;2022-12-24T06:49:32;17.00;75.00
50907;DHT22;36882;27.680;85.304;2022-12-24T06:52:02;16.90;75.00
50907;DHT22;36882;27.680;85.304;2022-12-24T06:54:32;16.90;75.30
50907;DHT22;36882;27.680;85.304;2022-12-24T06:57:02;16.80;75.10
50907;DHT22;36882;27.680;85.304;2022-12-24T06:59:32;16.90;75.10
50907;DHT22;36882;27.680;85.304;2022-12-24T07:02:02;17.00;73.70
50907;DHT22;36882;27.680;85.304;2022-12-24T07:04:32;17.00;73.80
50907;DHT22;36882;27.680;85.304;2022-12-24T07:07:03;17.00;74.60
50907;DHT22;36882;27.680;85.304;2022-12-24T07:09:33;16.90;75.60
50907;DHT22;36882;27.680;85.304;2022-12-24T07:12:03;16.90;76.20
50907;DHT22;36882;27.680;85.304;2022-12-24T07:14:33;16.90;76.60
50907;DHT22;36882;27.680;85.304;2022-12-24T07:17:04;17.00;76.70
50907;DHT22;36882;27.680;85.304;2022-12-24T07:19:34;17.10;75.80
50907;DHT22;36882;27.680;85.304;2022-12-24T07:22:04;17.20;76.00
50907;DHT22;36882;27.680;85.304;2022-12-24T07:24:42;17.30;74.40
50907;DHT22;36882;27.680;85.304;2022-12-24T07:27:12;17.40;74.80
50907;DHT22;36882;27.680;85.304;2022-12-24T07:29:41;17.50;75.40
50907;DHT22;36882;27.680;85.304;2022-12-24T07:32:13;17.50;75.40
50907;DHT22;36882;27.680;85.304;2022-12-24T07:34:43;17.60;74.00
50907;DHT22;36882;27.680;85.304;2022-12-24T07:37:13;17.70;72.90
50907;DHT22;36882;27.680;85.304;2022-12-24T07:39:43;17.70;70.90
50907;DHT22;36882;27.680;85.304;2022-12-24T07:42:13;17.70;71.70
50907;DHT22;36882;27.680;85.304;2022-12-24T07:44:43;17.70;72.10
50907;DHT22;36882;27.680;85.304;2022-12-24T07:47:13;17.70;72.10
50907;DHT22;36882;27.680;85.304;2022-12-24T07:49:43;17.80;72.50
50907;DHT22;36882;27.680;85.304;2022-12-24T07:52:13;17.90;71.30
50907;DHT22;36882;27.680;85.304;2022-12-24T07:54:43;17.80;72.50
50907;DHT22;36882;27.680;85.304;2022-12-24T07:57:13;17.90;72.60
50907;DHT22;36882;27.680;85.304;2022-12-24T07:59:43;17.80;72.30
50907;DHT22;36882;27.680;85.304;2022-12-24T08:02:13;17.80;72.60
50907;DHT22;36882;27.680;85.304;2022-12-24T08:04:45;17.90;73.00
50907;DHT22;36882;27.680;85.304;2022-12-24T08:07:15;17.90;72.70
50907;DHT22;36882;27.680;85.304;2022-12-24T08:09:45;18.00;71.70
50907;DHT22;36882;27.680;85.304;2022-12-24T08:12:15;18.00;70.70
50907;DHT22;36882;27.680;85.304;2022-12-24T08:14:45;18.20;69.90
50907;DHT22;36882;27.680;85.304;2022-12-24T08:17:15;18.20;71.30
50907;DHT22;36882;27.680;85.304;2022-12-24T08:19:45;18.10;71.60
50907;DHT22;36882;27.680;85.304;2022-12-24T08:22:15;18.20;69.40
50907;DHT22;36882;27.680;85.304;2022-12-24T08:24:45;18.20;69.10
50907;DHT22;36882;27.680;85.304;2022-12-24T08:27:16;18.30;70.50
50907;DHT22;36882;27.680;85.304;2022-12-24T08:29:46;18.20;71.20
50907;DHT22;36882;27.680;85.304;2022-12-24T08:32:17;18.20;70.40
50907;DHT22;36882;27.680;85.304;2022-12-24T08:34:48;18.20;69.40
50907;DHT22;36882;27.680;85.304;2022-12-24T08:37:18;18.30;67.90
50907;DHT22;36882;27.680;85.304;2022-12-24T08:39:48;18.40;66.40
50907;DHT22;36882;27.680;85.304;2022-12-24T08:42:18;18.40;66.50
50907;DHT22;36882;27.680;85.304;2022-12-24T08:44:48;18.40;65.10
50907;DHT22;36882;27.680;85.304;2022-12-24T08:47:18;18.50;65.20
50907;DHT22;36882;27.680;85.304;2022-12-24T08:49:48;18.50;65.70
50907;DHT22;36882;27.680;85.304;2022-12-24T08:52:18;18.50;64.40
50907;DHT22;36882;27.680;85.304;2022-12-24T08:54:48;18.50;64.80
50907;DHT22;36882;27.680;85.304;2022-12-24T08:57:18;18.50;62.70
50907;DHT22;36882;27.680;85.304;2022-12-24T08:59:48;18.50;64.40
50907;DHT22;36882;27.680;85.304;2022-12-24T09:02:19;18.40;64.90
50907;DHT22;36882;27.680;85.304;2022-12-24T09:04:49;18.50;63.60
50907;DHT22;36882;27.680;85.304;2022-12-24T09:07:19;18.50;64.20
50907;DHT22;36882;27.680;85.304;2022-12-24T09:09:49;18.50;65.10
50907;DHT22;36882;27.680;85.304;2022-12-24T09:12:19;18.50;66.10
50907;DHT22;36882;27.680;85.304;2022-12-24T09:14:50;18.50;65.90
50907;DHT22;36882;27.680;85.304;2022-12-24T09:17:29;18.60;64.50
50907;DHT22;36882;27.680;85.304;2022-12-24T09:19:59;18.60;66.20
50907;DHT22;36882;27.680;85.304;2022-12-24T09:22:29;18.60;65.60
50907;DHT22;36882;27.680;85.304;2022-12-24T09:24:59;18.60;65.70
50907;DHT22;36882;27.680;85.304;2022-12-24T09:27:30;18.60;64.30
50907;DHT22;36882;27.680;85.304;2022-12-24T09:30:00;18.50;66.60
50907;DHT22;36882;27.680;85.304;2022-12-24T09:32:30;18.60;64.80
50907;DHT22;36882;27.680;85.304;2022-12-24T09:35:00;18.60;63.60
50907;DHT22;36882;27.680;85.304;2022-12-24T09:37:30;18.60;63.90
50907;DHT22;36882;27.680;85.304;2022-12-24T09:40:00;18.50;63.60
50907;DHT22;36882;27.680;85.304;2022-12-24T09:42:41;18.60;61.60
50907;DHT22;36882;27.680;85.304;2022-12-24T09:45:21;18.50;60.70
50907;DHT22;36882;27.680;85.304;2022-12-24T09:48:00;18.50;61.50
50907;DHT22;36882;27.680;85.304;2022-12-24T09:50:41;18.50;61.60
50907;DHT22;36882;27.680;85.304;2022-12-24T09:53:27;18.50;61.30
50907;DHT22;36882;27.680;85.304;2022-12-24T09:56:03;18.50;60.90
50907;DHT22;36882;27.680;85.304;2022-12-24T09:58:40;18.40;61.30
50907;DHT22;36882;27.680;85.304;2022-12-24T10:01:13;18.40;61.90
50907;DHT22;36882;27.680;85.304;2022-12-24T10:03:44;18.40;62.70
50907;DHT22;36882;27.680;85.304;2022-12-24T10:12:21;18.30;64.40
50907;DHT22;36882;27.680;85.304;2022-12-24T10:15:11;18.20;64.80
50907;DHT22;36882;27.680;85.304;2022-12-24T10:18:21;18.20;65.60
50907;DHT22;36882;27.680;85.304;2022-12-24T10:21:12;18.10;65.70
50907;DHT22;36882;27.680;85.304;2022-12-24T10:29:31;18.10;65.60
50907;DHT22;36882;27.680;85.304;2022-12-24T10:32:31;18.00;65.70
50907;DHT22;36882;27.680;85.304;2022-12-24T10:35:18;17.90;65.40
50907;DHT22;36882;27.680;85.304;2022-12-24T10:37:50;17.80;66.30
50907;DHT22;36882;27.680;85.304;2022-12-24T10:43:19;17.70;66.30
50907;DHT22;36882;27.680;85.304;2022-12-24T10:46:07;17.70;66.80
50907;DHT22;36882;27.680;85.304;2022-12-24T10:49:00;17.70;67.50
50907;DHT22;36882;27.680;85.304;2022-12-24T10:51:45;17.70;67.20
50907;DHT22;36882;27.680;85.304;2022-12-24T10:54:26;17.70;67.00
50907;DHT22;36882;27.680;85.304;2022-12-24T10:56:58;17.70;67.40
50907;DHT22;36882;27.680;85.304;2022-12-24T10:59:49;17.60;67.40
50907;DHT22;36882;27.680;85.304;2022-12-24T11:02:33;17.50;67.80
50907;DHT22;36882;27.680;85.304;2022-12-24T11:05:06;17.50;68.30
50907;DHT22;36882;27.680;85.304;2022-12-24T11:07:36;17.50;68.50
50907;DHT22;36882;27.680;85.304;2022-12-24T11:10:12;17.40;69.00
50907;DHT22;36882;27.680;85.304;2022-12-24T11:12:51;17.20;69.80
50907;DHT22;36882;27.680;85.304;2022-12-24T11:15:41;17.10;70.00
50907;DHT22;36882;27.680;85.304;2022-12-24T11:18:14;17.00;71.70
50907;DHT22;36882;27.680;85.304;2022-12-24T11:20:50;17.00;73.00
50907;DHT22;36882;27.680;85.304;2022-12-24T11:23:21;16.80;71.70
50907;DHT22;36882;27.680;85.304;2022-12-24T11:25:52;16.80;71.30
50907;DHT22;36882;27.680;85.304;2022-12-24T11:28:26;16.60;72.80
50907;DHT22;36882;27.680;85.304;2022-12-24T11:31:00;16.50;73.20
50907;DHT22;36882;27.680;85.304;2022-12-24T11:33:31;16.40;73.10
50907;DHT22;36882;27.680;85.304;2022-12-24T11:36:16;16.30;73.60
50907;DHT22;36882;27.680;85.304;2022-12-24T11:38:55;16.20;73.60
50907;DHT22;36882;27.680;85.304;2022-12-24T11:41:26;16.10;74.50
50907;DHT22;36882;27.680;85.304;2022-12-24T11:44:06;16.00;72.70
50907;DHT22;36882;27.680;85.304;2022-12-24T11:46:41;15.90;73.60
50907;DHT22;36882;27.680;85.304;2022-12-24T11:49:24;15.80;73.50
50907;DHT22;36882;27.680;85.304;2022-12-24T11:52:15;15.80;73.80
50907;DHT22;36882;27.680;85.304;2022-12-24T11:55:32;15.70;73.60
50907;DHT22;36882;27.680;85.304;2022-12-24T12:00:38;15.60;74.20
50907;DHT22;36882;27.680;85.304;2022-12-24T12:03:24;15.50;74.30
50907;DHT22;36882;27.680;85.304;2022-12-24T12:05:58;15.40;75.40
50907;DHT22;36882;27.680;85.304;2022-12-24T12:08:31;15.40;76.60
50907;DHT22;36882;27.680;85.304;2022-12-24T12:11:03;15.40;76.50
50907;DHT22;36882;27.680;85.304;2022-12-24T12:13:37;15.30;76.00
50907;DHT22;36882;27.680;85.304;2022-12-24T12:16:21;15.20;76.10
50907;DHT22;36882;27.680;85.304;2022-12-24T12:18:58;15.10;75.40
50907;DHT22;36882;27.680;85.304;2022-12-24T12:21:37;15.20;74.80
50907;DHT22;36882;27.680;85.304;2022-12-24T12:24:23;15.10;74.20
50907;DHT22;36882;27.680;85.304;2022-12-24T12:27:45;15.10;75.00
50907;DHT22;36882;27.680;85.304;2022-12-24T12:30:06;15.00;75.30
50907;DHT22;36882;27.680;85.304;2022-12-24T12:35:35;14.90;75.00
50907;DHT22;36882;27.680;85.304;2022-12-24T12:38:22;14.90;76.50
50907;DHT22;36882;27.680;85.304;2022-12-24T12:47:13;14.80;75.90
50907;DHT22;36882;27.680;85.304;2022-12-24T12:50:31;14.80;76.30
50907;DHT22;36882;27.680;85.304;2022-12-24T12:53:13;14.70;76.60
50907;DHT22;36882;27.680;85.304;2022-12-24T12:56:13;14.70;77.10
50907;DHT22;36882;27.680;85.304;2022-12-24T12:58:45;14.60;77.10
50907;DHT22;36882;27.680;85.304;2022-12-24T13:04:28;14.60;76.90
50907;DHT22;36882;27.680;85.304;2022-12-24T13:07:07;14.50;77.80
50907;DHT22;36882;27.680;85.304;2022-12-24T13:10:07;14.50;78.50
50907;DHT22;36882;27.680;85.304;2022-12-24T13:13:24;14.40;78.20
50907;DHT22;36882;27.680;85.304;2022-12-24T13:18:57;14.30;79.90
50907;DHT22;36882;27.680;85.304;2022-12-24T13:21:30;14.20;79.90
50907;DHT22;36882;27.680;85.304;2022-12-24T13:24:20;14.20;79.80
50907;DHT22;36882;27.680;85.304;2022-12-24T13:27:23;14.20;79.50
50907;DHT22;36882;27.680;85.304;2022-12-24T13:30:00;14.20;78.60
50907;DHT22;36882;27.680;85.304;2022-12-24T13:32:45;14.10;77.50
50907;DHT22;36882;27.680;85.304;2022-12-24T13:35:31;14.10;77.80
50907;DHT22;36882;27.680;85.304;2022-12-24T13:38:29;14.10;78.60
50907;DHT22;36882;27.680;85.304;2022-12-24T13:44:16;14.00;78.80
50907;DHT22;36882;27.680;85.304;2022-12-24T13:47:19;13.90;79.80
50907;DHT22;36882;27.680;85.304;2022-12-24T13:50:16;13.80;79.70
50907;DHT22;36882;27.680;85.304;2022-12-24T13:52:52;13.80;80.00
50907;DHT22;36882;27.680;85.304;2022-12-24T13:55:22;13.80;79.60
50907;DHT22;36882;27.680;85.304;2022-12-24T13:57:58;13.70;81.10
50907;DHT22;36882;27.680;85.304;2022-12-24T14:00:52;13.70;81.10
50907;DHT22;36882;27.680;85.304;2022-12-24T14:03:30;13.60;81.50
50907;DHT22;36882;27.680;85.304;2022-12-24T14:06:07;13.60;82.10
50907;DHT22;36882;27.680;85.304;2022-12-24T14:08:43;13.50;82.00
50907;DHT22;36882;27.680;85.304;2022-12-24T14:11:18;13.50;82.10
50907;DHT22;36882;27.680;85.304;2022-12-24T14:13:53;13.50;82.40
50907;DHT22;36882;27.680;85.304;2022-12-24T14:16:40;13.50;81.90
50907;DHT22;36882;27.680;85.304;2022-12-24T14:19:24;13.50;81.90
50907;DHT22;36882;27.680;85.304;2022-12-24T14:22:26;13.50;82.30
50907;DHT22;36882;27.680;85.304;2022-12-24T14:24:57;13.40;82.20
50907;DHT22;36882;27.680;85.304;2022-12-24T14:27:57;13.40;82.60
50907;DHT22;36882;27.680;85.304;2022-12-24T14:30:29;13.40;83.10
50907;DHT22;36882;27.680;85.304;2022-12-24T14:32:59;13.30;83.40
50907;DHT22;36882;27.680;85.304;2022-12-24T14:35:36;13.30;83.40
50907;DHT22;36882;27.680;85.304;2022-12-24T14:38:12;13.30;84.30
50907;DHT22;36882;27.680;85.304;2022-12-24T14:46:59;13.10;85.00
50907;DHT22;36882;27.680;85.304;2022-12-24T14:52:54;13.10;84.10
50907;DHT22;36882;27.680;85.304;2022-12-24T14:55:44;13.10;84.20
50907;DHT22;36882;27.680;85.304;2022-12-24T14:58:32;13.20;85.00
50907;DHT22;36882;27.680;85.304;2022-12-24T15:01:26;13.10;84.60
50907;DHT22;36882;27.680;85.304;2022-12-24T15:04:14;13.20;84.50
50907;DHT22;36882;27.680;85.304;2022-12-24T15:06:49;13.00;85.50
50907;DHT22;36882;27.680;85.304;2022-12-24T15:09:26;12.90;86.00
50907;DHT22;36882;27.680;85.304;2022-12-24T15:11:59;12.90;85.90
50907;DHT22;36882;27.680;85.304;2022-12-24T15:14:41;12.90;86.20
50907;DHT22;36882;27.680;85.304;2022-12-24T15:17:12;12.80;86.40
50907;DHT22;36882;27.680;85.304;2022-12-24T15:19:47;12.80;86.80
50907;DHT22;36882;27.680;85.304;2022-12-24T15:22:27;12.80;87.00
50907;DHT22;36882;27.680;85.304;2022-12-24T15:24:58;12.80;86.90
50907;DHT22;36882;27.680;85.304;2022-12-24T15:27:32;12.80;86.50
50907;DHT22;36882;27.680;85.304;2022-12-24T15:30:14;12.80;87.00
50907;DHT22;36882;27.680;85.304;2022-12-24T15:32:45;12.70;87.30
50907;DHT22;36882;27.680;85.304;2022-12-24T15:35:33;12.70;87.30
50907;DHT22;36882;27.680;85.304;2022-12-24T15:38:03;12.70;87.40
50907;DHT22;36882;27.680;85.304;2022-12-24T15:40:34;12.60;87.90
50907;DHT22;36882;27.680;85.304;2022-12-24T15:43:05;12.60;87.70
50907;DHT22;36882;27.680;85.304;2022-12-24T15:45:41;12.60;87.40
50907;DHT22;36882;27.680;85.304;2022-12-24T15:48:17;12.50;88.20
50907;DHT22;36882;27.680;85.304;2022-12-24T15:50:53;12.50;88.40
50907;DHT22;36882;27.680;85.304;2022-12-24T15:53:28;12.40;88.30
50907;DHT22;36882;27.680;85.304;2022-12-24T15:56:13;12.40;87.80
50907;DHT22;36882;27.680;85.304;2022-12-24T16:05:32;12.40;88.40
50907;DHT22;36882;27.680;85.304;2022-12-24T16:08:20;12.40;87.30
50907;DHT22;36882;27.680;85.304;2022-12-24T16:14:12;12.40;86.00
50907;DHT22;36882;27.680;85.304;2022-12-24T16:16:49;12.40;86.10
50907;DHT22;36882;27.680;85.304;2022-12-24T16:19:28;12.30;86.50
50907;DHT22;36882;27.680;85.304;2022-12-24T16:22:06;12.30;86.40
50907;DHT22;36882;27.680;85.304;2022-12-24T16:24:52;12.20;85.60
50907;DHT22;36882;27.680;85.304;2022-12-24T16:27:23;12.10;85.30
50907;DHT22;36882;27.680;85.304;2022-12-24T16:29:53;12.20;85.50
50907;DHT22;36882;27.680;85.304;2022-12-24T16:32:32;12.20;85.30
50907;DHT22;36882;27.680;85.304;2022-12-24T16:35:05;12.30;84.80
50907;DHT22;36882;27.680;85.304;2022-12-24T16:37:36;12.20;85.10
50907;DHT22;36882;27.680;85.304;2022-12-24T16:40:11;12.10;85.80
50907;DHT22;36882;27.680;85.304;2022-12-24T16:42:47;12.10;86.00
50907;DHT22;36882;27.680;85.304;2022-12-24T16:45:35;12.10;85.00
50907;DHT22;36882;27.680;85.304;2022-12-24T16:48:06;12.00;86.30
50907;DHT22;36882;27.680;85.304;2022-12-24T16:50:37;12.00;86.00
50907;DHT22;36882;27.680;85.304;2022-12-24T16:53:08;11.90;86.30
50907;DHT22;36882;27.680;85.304;2022-12-24T16:55:44;11.80;87.20
50907;DHT22;36882;27.680;85.304;2022-12-24T16:58:18;11.80;87.60
50907;DHT22;36882;27.680;85.304;2022-12-24T17:00:48;11.80;87.70
50907;DHT22;36882;27.680;85.304;2022-12-24T17:03:18;11.70;88.20
50907;DHT22;36882;27.680;85.304;2022-12-24T17:05:48;11.70;88.50
50907;DHT22;36882;27.680;85.304;2022-12-24T17:08:18;11.70;88.30
50907;DHT22;36882;27.680;85.304;2022-12-24T17:10:50;11.70;88.90
50907;DHT22;36882;27.680;85.304;2022-12-24T17:13:21;11.60;88.60